createdAt,value
2018-04-28T00:02:46.386Z,24.77
2018-04-28T00:07:47.356Z,26.60
2018-04-28T00:12:48.324Z,27.60
2018-04-28T00:17:49.349Z,29.00
2018-04-28T00:23:05.230Z,26.93
2018-04-28T00:28:07.176Z,33.77
2018-04-28T00:33:23.078Z,27.37
2018-04-28T00:38:24.094Z,28.57
2018-04-28T00:43:25.065Z,36.07
2018-04-28T00:48:47.763Z,26.80
2018-04-28T00:53:48.715Z,32.43
2018-04-28T00:58:51.563Z,31.43
2018-04-28T01:03:53.425Z,34.07
2018-04-28T01:08:55.361Z,32.23
2018-04-28T01:13:57.294Z,35.63
2018-04-28T01:18:58.273Z,30.23
2018-04-28T01:24:02.056Z,38.13
2018-04-28T01:29:06.987Z,37.07
2018-04-28T01:34:14.999Z,37.27
2018-04-28T01:39:17.856Z,45.37
2018-04-28T01:44:43.710Z,36.07
2018-04-28T01:49:49.668Z,35.43
2018-04-28T01:54:51.503Z,38.27
2018-04-28T01:59:53.439Z,39.70
2018-04-28T02:04:58.220Z,34.50
2018-04-28T02:09:59.196Z,37.60
2018-04-28T02:15:06.984Z,35.80
2018-04-28T02:20:13.893Z,33.27
2018-04-28T02:25:14.849Z,38.07
2018-04-28T02:30:15.806Z,36.20
2018-04-28T02:35:17.563Z,36.83
2018-04-28T02:46:02.397Z,28.83
2018-04-28T02:51:12.318Z,32.47
2018-04-28T02:56:20.412Z,33.13
2018-04-28T03:01:33.716Z,35.80
2018-04-28T03:06:50.586Z,38.53
2018-04-28T03:12:07.325Z,40.07
2018-04-28T03:17:09.116Z,36.93
2018-04-28T03:22:10.093Z,39.93
2018-04-28T03:27:11.875Z,38.97
2018-04-28T03:32:12.826Z,35.37
2018-04-28T03:37:20.550Z,35.43
2018-04-28T03:42:27.210Z,44.20
2018-04-28T03:53:03.831Z,37.27
2018-04-28T03:58:17.140Z,43.20
2018-04-28T04:03:22.088Z,45.87
2018-04-28T04:08:35.444Z,48.40
2018-04-28T04:13:50.072Z,35.20
2018-04-28T04:18:51.887Z,44.57
2018-04-28T04:29:37.664Z,45.40
2018-04-28T04:34:43.450Z,46.20
2018-04-28T04:39:56.602Z,41.60
2018-04-28T04:45:18.262Z,45.17
2018-04-28T04:56:20.489Z,45.50
2018-04-28T05:07:00.690Z,45.07
2018-04-28T05:18:02.429Z,44.57
2018-04-28T05:23:15.552Z,41.40
2018-04-28T05:28:23.742Z,46.07
2018-04-28T05:33:37.214Z,39.23
2018-04-28T05:50:14.812Z,36.43
2018-04-28T05:55:31.742Z,32.90
2018-04-28T06:00:32.714Z,40.30
2018-04-28T06:05:38.563Z,37.37
2018-04-28T06:10:46.486Z,37.80
2018-04-28T06:15:59.841Z,38.80
2018-04-28T06:21:03.385Z,33.97
2018-04-28T06:26:04.451Z,32.33
2018-04-28T06:31:05.335Z,29.50
2018-04-28T06:36:06.324Z,23.57
2018-04-28T06:41:07.385Z,22.50
2018-04-28T06:46:08.326Z,20.63
2018-04-28T06:51:09.309Z,16.10
2018-04-28T06:56:10.273Z,16.27
2018-04-28T07:01:11.260Z,16.90
2018-04-28T07:06:12.224Z,9.30
2018-04-28T07:11:13.229Z,8.53
2018-04-28T07:16:14.217Z,14.63
2018-04-28T07:21:15.419Z,7.57
2018-04-28T07:26:16.368Z,16.73
2018-04-28T07:31:17.372Z,13.30
2018-04-28T07:36:18.362Z,9.23
2018-04-28T07:41:19.344Z,12.33
2018-04-28T07:46:20.326Z,10.60
2018-04-28T07:51:21.295Z,10.73
2018-04-28T07:56:22.276Z,9.00
2018-04-28T08:01:23.244Z,9.20
2018-04-28T08:06:24.216Z,6.50
2018-04-28T08:11:25.297Z,9.67
2018-04-28T08:16:28.085Z,10.20
2018-04-28T08:21:29.198Z,15.20
2018-04-28T08:26:30.185Z,9.13
2018-04-28T08:31:31.167Z,9.27
2018-04-28T08:36:32.146Z,11.27
2018-04-28T08:41:33.144Z,7.77
2018-04-28T08:46:34.123Z,13.63
2018-04-28T08:51:35.117Z,19.83
2018-04-28T08:57:48.270Z,15.50
2018-04-28T09:02:49.257Z,8.13
2018-04-28T09:07:50.226Z,9.23
2018-04-28T09:12:51.222Z,8.80
2018-04-28T09:17:52.234Z,12.90
2018-04-28T09:22:53.252Z,6.97
2018-04-28T09:27:54.206Z,11.13
2018-04-28T09:32:55.258Z,10.20
2018-04-28T09:37:56.176Z,24.03
2018-04-28T09:42:57.143Z,8.03
2018-04-28T09:47:58.111Z,12.03
2018-04-28T09:52:59.068Z,11.87
2018-04-28T09:58:05.739Z,18.30
2018-04-28T10:03:06.707Z,14.73
2018-04-28T10:08:07.699Z,14.60
2018-04-28T10:13:08.664Z,12.47
2018-04-28T10:18:09.683Z,13.20
2018-04-28T10:23:10.650Z,17.20
2018-04-28T10:28:11.634Z,22.93
2018-04-28T10:33:12.615Z,19.77
2018-04-28T10:38:13.604Z,15.73
2018-04-28T10:43:14.595Z,16.10
2018-04-28T10:48:15.584Z,13.07
2018-04-28T10:53:16.575Z,15.30
2018-04-28T10:58:17.557Z,14.43
2018-04-28T11:03:18.541Z,20.63
2018-04-28T11:08:19.532Z,15.47
2018-04-28T11:13:20.525Z,16.67
2018-04-28T11:18:21.575Z,14.43
2018-04-28T11:23:24.431Z,8.50
2018-04-28T11:28:25.668Z,11.93
2018-04-28T11:33:26.722Z,22.00
2018-04-28T11:38:27.738Z,16.40
2018-04-28T11:43:28.718Z,22.10
2018-04-28T11:48:29.765Z,17.60
2018-04-28T11:53:30.750Z,18.20
2018-04-28T11:58:31.715Z,19.10
2018-04-28T12:03:32.711Z,18.73
2018-04-28T12:08:33.687Z,25.50
2018-04-28T12:13:34.665Z,21.23
2018-04-28T12:18:35.695Z,21.33
2018-04-28T12:23:36.743Z,30.47
2018-04-28T12:28:37.723Z,24.03
2018-04-28T12:33:38.737Z,23.00
2018-04-28T12:38:39.743Z,21.27
2018-04-28T12:43:40.831Z,26.13
2018-04-28T12:48:41.846Z,26.40
2018-04-28T12:53:42.836Z,27.27
2018-04-28T12:58:43.806Z,29.97
2018-04-28T13:03:44.827Z,47.00
2018-04-28T13:08:45.819Z,29.17
2018-04-28T13:13:46.794Z,38.00
2018-04-28T13:18:47.812Z,32.23
2018-04-28T13:23:48.853Z,39.80
2018-04-28T13:28:49.849Z,32.87
2018-04-28T13:33:50.853Z,31.03
2018-04-28T13:38:51.825Z,40.87
2018-04-28T13:43:52.828Z,32.43
2018-04-28T13:48:53.837Z,36.10
2018-04-28T13:53:54.806Z,33.40
2018-04-28T13:58:55.827Z,34.53
2018-04-28T14:03:56.836Z,32.00
2018-04-28T14:08:57.883Z,28.77
2018-04-28T14:13:58.888Z,28.13
2018-04-28T14:18:59.904Z,28.90
2018-04-28T14:24:00.957Z,31.73
2018-04-28T14:29:01.959Z,35.13
2018-04-28T14:34:02.949Z,30.77
2018-04-28T14:39:04.029Z,28.53
2018-04-28T14:44:05.135Z,27.43
2018-04-28T14:49:06.103Z,29.63
2018-04-28T14:54:07.089Z,18.60
2018-04-28T14:59:08.063Z,20.80
2018-04-28T15:04:09.046Z,21.90
2018-04-28T15:09:10.007Z,24.07
2018-04-28T15:14:11.014Z,22.23
2018-04-28T15:19:12.041Z,26.30
2018-04-28T15:24:13.094Z,19.23
2018-04-28T15:29:14.081Z,22.23
2018-04-28T15:34:15.028Z,21.03
2018-04-28T15:39:15.997Z,17.30
2018-04-28T15:44:16.983Z,23.17
2018-04-28T15:49:17.977Z,19.77
2018-04-28T15:54:18.950Z,14.30
2018-04-28T15:59:19.941Z,20.47
2018-04-28T16:04:20.928Z,16.50
2018-04-28T16:09:21.916Z,13.80
2018-04-28T16:14:22.884Z,20.47
2018-04-28T16:19:23.904Z,16.20
2018-04-28T16:24:24.911Z,14.90
2018-04-28T16:29:25.883Z,15.50
2018-04-28T16:34:26.871Z,18.53
2018-04-28T16:39:27.860Z,15.70
2018-04-28T16:44:28.840Z,16.50
2018-04-28T16:49:29.860Z,20.27
2018-04-28T16:54:30.837Z,17.80
2018-04-28T16:59:31.828Z,17.67
2018-04-28T17:04:32.809Z,16.20
2018-04-28T17:09:33.768Z,18.13
2018-04-28T17:14:34.766Z,18.07
2018-04-28T17:19:35.880Z,18.90
2018-04-28T17:24:36.887Z,18.37
2018-04-28T17:29:37.896Z,24.97
2018-04-28T17:34:38.900Z,24.07
2018-04-28T17:39:39.913Z,32.10
2018-04-28T17:44:40.930Z,24.73
2018-04-28T17:49:41.930Z,23.00
2018-04-28T17:54:42.912Z,26.50
2018-04-28T17:59:43.882Z,30.93
2018-04-28T18:04:44.907Z,19.57
2018-04-28T18:09:45.931Z,30.90
2018-04-28T18:14:46.923Z,22.30
2018-04-28T18:19:47.950Z,20.67
2018-04-28T18:24:48.946Z,20.73
2018-04-28T18:29:49.942Z,23.47
2018-04-28T18:34:50.934Z,23.30
2018-04-28T18:39:51.951Z,24.47
2018-04-28T18:44:52.973Z,34.93
2018-04-28T18:49:53.938Z,33.93
2018-04-28T18:54:54.925Z,33.13
2018-04-28T18:59:55.942Z,30.30
2018-04-28T19:04:56.958Z,32.20
2018-04-28T19:09:57.934Z,34.77
2018-04-28T19:14:58.925Z,35.23
2018-04-28T19:20:00.349Z,27.33
2018-04-28T19:25:01.393Z,27.93
2018-04-28T19:30:02.401Z,29.43
2018-04-28T19:35:03.401Z,31.80
2018-04-28T19:40:04.372Z,29.23
2018-04-28T19:45:05.356Z,29.97
2018-04-28T19:50:06.353Z,24.80
2018-04-28T19:55:07.348Z,29.57
2018-04-28T20:00:08.362Z,28.63
2018-04-28T20:05:09.365Z,29.30
2018-04-28T20:10:10.400Z,28.40
2018-04-28T20:15:11.398Z,25.50
2018-04-28T20:20:12.448Z,24.00
2018-04-28T20:25:17.413Z,29.90
2018-04-28T20:30:18.464Z,23.97
2018-04-28T20:35:19.412Z,28.40
2018-04-28T20:40:20.384Z,26.63
2018-04-28T20:45:21.361Z,24.37
2018-04-28T20:50:22.373Z,22.83
2018-04-28T20:55:23.360Z,22.27
2018-04-28T21:00:24.320Z,26.03
2018-04-28T21:05:25.340Z,25.77
2018-04-28T21:10:26.317Z,25.00
2018-04-28T21:15:27.337Z,21.67
2018-04-28T21:20:28.347Z,24.37
2018-04-28T21:25:29.351Z,25.37
2018-04-28T21:30:30.359Z,25.77
2018-04-28T21:35:31.340Z,24.03
2018-04-28T21:40:32.320Z,27.70
2018-04-28T21:45:33.303Z,25.60
2018-04-28T21:50:34.288Z,25.17
2018-04-28T21:55:35.267Z,29.70
2018-04-28T22:00:36.255Z,28.93
2018-04-28T22:05:37.223Z,29.80
2018-04-28T22:10:38.236Z,31.33
2018-04-28T22:15:39.208Z,29.50
2018-04-28T22:20:40.199Z,32.20
2018-04-28T22:25:41.219Z,33.70
2018-04-28T22:30:42.213Z,38.30
2018-04-28T22:35:43.168Z,30.00
2018-04-28T22:40:44.197Z,32.80
2018-04-28T22:45:45.185Z,31.00
2018-04-28T22:50:46.165Z,34.33
2018-04-28T22:55:47.181Z,26.90
2018-04-28T23:00:48.172Z,27.90
2018-04-28T23:05:49.156Z,26.23
2018-04-28T23:10:50.152Z,28.43
2018-04-28T23:15:51.133Z,26.60
2018-04-28T23:20:52.151Z,27.93
2018-04-28T23:25:53.126Z,29.47
2018-04-28T23:30:54.148Z,27.03
2018-04-28T23:35:55.116Z,30.77
2018-04-28T23:40:56.112Z,25.80
2018-04-28T23:45:57.128Z,25.63
2018-04-28T23:50:58.080Z,29.53
2018-04-28T23:55:59.052Z,34.63
